Time;durP1;ratioP1;P1;durP2;ratioP2;P2;SDS_P1;SDS_P2;PMS_P1;PMS_P2;Temp;Humidity;BMP_temperature;BMP_pressure;BME280_temperature;BME280_humidity;BME280_pressure;Samples;Min_cycle;Max_cycle;Signal;HPM_P1;HPM_P2
2022/02/06 00:01:11;;;;;;;11.40;2.35;;;;;;;6.19;80.84;100989.66;5130838;27;20046;-68
2022/02/06 00:03:39;;;;;;;14.98;3.17;;;;;;;6.19;81.05;100981.78;5129374;27;20063;-68
2022/02/06 00:06:07;;;;;;;17.75;2.70;;;;;;;6.10;80.86;100956.16;5130792;27;20035;-68
2022/02/06 00:08:34;;;;;;;15.55;2.72;;;;;;;6.13;81.59;100963.78;5113103;28;20065;-68
2022/02/06 00:11:01;;;;;;;17.52;2.80;;;;;;;6.19;81.56;100951.97;5130363;27;20493;-68
2022/02/06 00:13:27;;;;;;;9.00;2.40;;;;;;;6.15;81.02;100946.94;5130397;28;20043;-68
2022/02/06 00:15:54;;;;;;;11.68;2.33;;;;;;;6.19;80.46;100949.31;5129192;28;20092;-67
2022/02/06 00:18:21;;;;;;;15.82;2.53;;;;;;;6.15;80.38;100949.56;5129873;27;20043;-68
2022/02/06 00:20:53;;;;;;;11.57;2.53;;;;;;;6.21;80.41;100945.59;5128626;28;20085;-68
2022/02/06 00:23:23;;;;;;;12.95;2.50;;;;;;;6.26;80.64;100948.72;5130114;27;20048;-67
2022/02/06 00:31:45;;;;;;;13.23;3.08;;;;;;;6.26;80.11;100926.81;5131268;27;20379;-68
2022/02/06 00:39:25;;;;;;;14.18;2.67;;;;;;;6.45;78.43;100915.63;5090971;27;20177;-68
2022/02/06 00:41:52;;;;;;;16.85;2.90;;;;;;;6.44;78.93;100906.91;5072612;28;20052;-68
2022/02/06 00:44:19;;;;;;;9.30;2.28;;;;;;;6.39;79.79;100900.31;5072214;28;20040;-68
2022/02/06 00:46:46;;;;;;;7.78;2.30;;;;;;;6.43;78.53;100904.38;5060349;28;20037;-68
2022/02/06 00:49:17;;;;;;;14.05;2.85;;;;;;;6.47;79.03;100898.72;5052489;28;20570;-68
2022/02/06 00:51:53;;;;;;;14.68;3.03;;;;;;;6.42;77.34;100892.16;5052343;28;20557;-69
2022/02/06 00:54:20;;;;;;;13.65;3.08;;;;;;;6.49;77.70;100902.09;5087569;28;20056;-68
2022/02/06 00:56:47;;;;;;;10.57;2.70;;;;;;;6.57;77.18;100892.69;5090179;28;20040;-67
2022/02/06 00:59:14;;;;;;;11.88;2.60;;;;;;;6.52;78.35;100893.91;5089786;28;20040;-68
2022/02/06 01:01:42;;;;;;;14.38;2.50;;;;;;;6.70;76.40;100888.13;5090411;28;20550;-68
2022/02/06 01:04:10;;;;;;;11.60;2.30;;;;;;;6.57;77.30;100888.28;5088231;28;20040;-68
2022/02/06 01:06:37;;;;;;;15.35;3.03;;;;;;;6.63;76.40;100881.69;5055649;28;20094;-67
2022/02/06 01:09:05;;;;;;;12.93;2.67;;;;;;;6.67;76.68;100872.56;5089717;28;20042;-67
2022/02/06 01:11:34;;;;;;;13.10;2.58;;;;;;;6.70;76.40;100873.13;5089659;28;20519;-67
2022/02/06 01:14:11;;;;;;;10.88;2.55;;;;;;;6.69;76.82;100865.34;5089667;28;20044;-68
2022/02/06 01:16:44;;;;;;;14.90;2.72;;;;;;;6.69;76.91;100854.81;5089696;28;20123;-68
2022/02/06 01:19:17;;;;;;;12.60;3.53;;;;;;;6.84;76.65;100857.97;5056857;28;20041;-68
2022/02/06 01:22:04;;;;;;;11.95;2.90;;;;;;;6.76;76.76;100844.59;5090057;28;20048;-68
2022/02/06 01:24:42;;;;;;;10.38;2.88;;;;;;;6.80;77.73;100846.84;5074611;28;20066;-68
2022/02/06 01:27:14;;;;;;;11.48;2.83;;;;;;;6.69;77.43;100839.00;5073354;28;20385;-67
2022/02/06 01:29:54;;;;;;;14.00;2.80;;;;;;;6.72;76.91;100834.28;5055132;28;20059;-68
2022/02/06 01:32:25;;;;;;;14.93;3.03;;;;;;;6.71;77.23;100829.16;5069564;28;20044;-68
2022/02/06 01:34:59;;;;;;;13.07;3.22;;;;;;;6.75;76.64;100835.88;5089219;28;20048;-68
2022/02/06 01:37:37;;;;;;;14.00;2.90;;;;;;;6.73;77.76;100832.50;5089184;28;20063;-68
2022/02/06 01:42:52;;;;;;;19.35;3.88;;;;;;;6.81;76.76;100829.25;5110864;27;20380;-68
2022/02/06 02:04:44;;;;;;;12.13;2.88;;;;;;;6.87;77.52;100779.44;5088588;28;20078;-68
2022/02/06 02:07:46;;;;;;;14.13;2.85;;;;;;;6.86;78.70;100772.50;5071985;28;20404;-68
2022/02/06 02:10:39;;;;;;;14.57;3.25;;;;;;;6.90;78.22;100781.84;5097217;28;20036;-68
2022/02/06 02:21:31;;;;;;;18.60;3.55;;;;;;;6.70;80.49;100735.22;5109822;28;20044;-68
2022/02/06 02:26:52;;;;;;;12.23;3.20;;;;;;;6.62;81.72;100729.75;5109855;28;20040;-68
2022/02/06 02:46:05;;;;;;;17.23;3.25;;;;;;;6.46;82.78;100686.22;5131366;27;20386;-68
2022/02/06 02:48:33;;;;;;;14.10;2.90;;;;;;;6.49;82.05;100687.75;5130136;28;20042;-68
2022/02/06 02:51:05;;;;;;;14.90;3.05;;;;;;;6.59;82.15;100683.41;5113151;28;20097;-68
2022/02/06 02:53:38;;;;;;;9.88;3.00;;;;;;;6.60;82.16;100681.59;5131224;27;20376;-69
2022/02/06 02:56:49;;;;;;;24.02;3.30;;;;;;;6.60;82.74;100671.03;5131184;27;20451;-68
2022/02/06 02:59:12;;;;;;;13.55;3.10;;;;;;;6.57;83.06;100666.03;5130978;27;20040;-68
2022/02/06 03:01:50;;;;;;;18.00;3.50;;;;;;;6.49;83.69;100672.81;5130126;28;20082;-68
2022/02/06 03:04:17;;;;;;;18.00;3.47;;;;;;;6.57;82.47;100666.88;5129901;28;20400;-68
2022/02/06 03:06:44;;;;;;;10.95;3.08;;;;;;;6.64;81.82;100654.84;5130935;27;20047;-68
2022/02/06 03:09:11;;;;;;;19.88;3.63;;;;;;;6.52;82.96;100637.44;5128840;27;20047;-69
2022/02/06 03:11:37;;;;;;;14.77;3.72;;;;;;;6.57;82.59;100642.31;5129618;28;20065;-68
2022/02/06 03:14:09;;;;;;;12.70;3.25;;;;;;;6.57;83.06;100648.44;5129691;28;20066;-68
2022/02/06 03:16:43;;;;;;;;;;;;;;;6.51;83.28;100635.75;5131113;27;20039;-68
2022/02/06 03:19:15;;;;;;;14.10;3.30;;;;;;;6.57;83.22;100645.78;5129582;28;19927;-68
2022/02/06 03:21:43;;;;;;;14.60;3.13;;;;;;;6.40;83.55;100615.59;5113105;28;20518;-68
2022/02/06 03:26:55;;;;;;;13.98;3.40;;;;;;;6.43;84.06;100603.97;5070391;28;20386;-67
2022/02/06 03:29:24;;;;;;;19.63;3.65;;;;;;;6.45;84.56;100618.66;5070431;28;20040;-67
2022/02/06 03:31:51;;;;;;;16.67;3.38;;;;;;;6.43;83.99;100628.50;5070166;28;20048;-68
2022/02/06 03:34:19;;;;;;;15.55;3.38;;;;;;;6.51;84.09;100612.03;5033001;28;20497;-67
2022/02/06 03:36:46;;;;;;;10.27;3.17;;;;;;;6.45;84.38;100621.31;5015960;28;20099;-67
2022/02/06 03:39:13;;;;;;;11.95;3.00;;;;;;;6.46;84.37;100616.88;5032618;28;20048;-68
2022/02/06 03:42:07;;;;;;;12.85;3.47;;;;;;;6.54;84.49;100619.69;5032095;28;20091;-67
2022/02/06 03:44:36;;;;;;;17.45;3.28;;;;;;;6.54;83.84;100609.97;5049084;28;20037;-68
2022/02/06 03:47:17;;;;;;;15.15;2.92;;;;;;;6.52;84.03;100605.81;5032085;28;20053;-67
2022/02/06 03:49:54;;;;;;;16.88;3.60;;;;;;;6.45;84.50;100602.03;5049005;28;20059;-67
2022/02/06 03:52:28;;;;;;;15.93;3.25;;;;;;;6.42;84.75;100621.59;5049795;28;20095;-67
2022/02/06 03:54:55;;;;;;;12.40;2.95;;;;;;;6.45;84.70;100608.13;5050163;28;20120;-67
2022/02/06 03:57:22;;;;;;;13.65;3.25;;;;;;;6.37;85.96;100600.06;5031825;28;20049;-67
2022/02/06 03:59:49;;;;;;;12.93;3.83;;;;;;;6.42;85.75;100591.75;5032244;28;20138;-67
2022/02/06 04:02:16;;;;;;;21.10;3.35;;;;;;;6.42;85.62;100581.19;5048442;28;20049;-67
2022/02/06 04:04:42;;;;;;;11.45;3.05;;;;;;;6.39;85.55;100595.50;5065728;28;20041;-67
2022/02/06 04:07:12;;;;;;;17.20;3.58;;;;;;;6.48;86.45;100584.16;5069357;28;20049;-67
2022/02/06 04:09:46;;;;;;;11.13;2.80;;;;;;;6.50;85.38;100590.13;5069170;28;20052;-67
2022/02/06 04:12:15;;;;;;;18.85;3.72;;;;;;;6.47;86.64;100584.28;5069149;28;20132;-67
2022/02/06 04:14:54;;;;;;;12.45;3.20;;;;;;;6.44;86.01;100572.22;5068949;28;20071;-67
2022/02/06 04:17:25;;;;;;;9.40;2.58;;;;;;;6.36;86.88;100565.94;5067400;28;20072;-67
2022/02/06 04:19:52;;;;;;;12.50;3.00;;;;;;;6.34;87.27;100564.25;5034575;28;20493;-67
2022/02/06 04:22:21;;;;;;;19.90;3.70;;;;;;;6.22;88.74;100554.78;5050646;28;20667;-67
2022/02/06 04:24:49;;;;;;;17.60;3.70;;;;;;;6.34;88.13;100568.69;5034220;28;20135;-68
2022/02/06 04:27:18;;;;;;;12.85;3.38;;;;;;;6.27;88.36;100555.19;5069084;28;20086;-67
2022/02/06 04:29:47;;;;;;;13.13;3.00;;;;;;;6.35;87.61;100557.19;5069093;28;20044;-67
2022/02/06 04:32:13;;;;;;;18.17;3.45;;;;;;;6.29;88.39;100555.94;5068728;28;20037;-68
2022/02/06 04:34:41;;;;;;;15.95;3.25;;;;;;;6.44;87.73;100547.66;5066904;28;20037;-67
2022/02/06 04:37:19;;;;;;;14.00;3.80;;;;;;;6.42;87.35;100541.69;5061716;28;20103;-67
2022/02/06 04:51:05;;;;;;;13.85;3.33;;;;;;;6.39;87.87;100513.81;5055449;28;20045;-67
2022/02/06 05:34:02;;;;;;;14.90;3.35;;;;;;;6.57;86.70;100452.53;5110897;28;20099;-68
2022/02/06 05:36:29;;;;;;;11.30;3.00;;;;;;;6.60;86.29;100450.47;5110507;28;20036;-68
2022/02/06 05:38:55;;;;;;;10.10;3.05;;;;;;;6.59;87.16;100445.34;5110835;28;20059;-67
2022/02/06 05:41:23;;;;;;;12.15;3.47;;;;;;;6.63;87.38;100433.56;5109575;28;20051;-68
2022/02/06 05:43:50;;;;;;;9.77;2.92;;;;;;;6.72;86.46;100435.38;5092845;28;20047;-67
2022/02/06 05:46:17;;;;;;;8.82;2.95;;;;;;;6.64;86.68;100432.56;5110563;28;20389;-68
2022/02/06 05:48:44;;;;;;;13.85;3.10;;;;;;;6.60;87.45;100423.28;5110422;28;20127;-68
2022/02/06 05:51:13;;;;;;;12.48;2.90;;;;;;;6.54;86.68;100407.03;5109526;28;20096;-67
2022/02/06 05:53:41;;;;;;;11.13;2.60;;;;;;;6.63;86.19;100407.22;5110365;28;20036;-67
2022/02/06 05:56:07;;;;;;;10.93;2.97;;;;;;;6.48;86.39;100383.06;5109204;28;20043;-68
2022/02/06 05:58:34;;;;;;;19.45;3.30;;;;;;;6.62;86.68;100405.53;5110173;28;20035;-67
2022/02/06 06:01:01;;;;;;;10.55;3.40;;;;;;;6.59;88.12;100398.75;5109194;28;20441;-68
2022/02/06 06:03:27;;;;;;;10.55;2.78;;;;;;;6.62;87.26;100392.34;5108428;28;20040;-67
2022/02/06 06:05:54;;;;;;;9.30;2.47;;;;;;;6.68;86.72;100386.53;5106597;28;20097;-67
2022/02/06 06:08:21;;;;;;;13.27;2.53;;;;;;;6.68;86.64;100391.81;5105221;28;20040;-67
2022/02/06 06:10:48;;;;;;;9.85;2.70;;;;;;;6.66;86.99;100378.78;5088524;28;20048;-67
2022/02/06 06:13:16;;;;;;;9.32;2.50;;;;;;;6.59;86.90;100355.75;5089406;28;20451;-67
2022/02/06 06:15:43;;;;;;;15.30;2.90;;;;;;;6.82;86.95;100378.22;5088607;28;20036;-67
2022/02/06 06:18:13;;;;;;;12.30;2.90;;;;;;;6.81;86.93;100373.91;5097717;28;20089;-67
2022/02/06 06:20:42;;;;;;;11.43;2.65;;;;;;;6.82;86.22;100365.06;5108742;28;20469;-67
2022/02/06 06:23:09;;;;;;;10.30;2.85;;;;;;;6.80;86.55;100358.22;5109923;28;20479;-67
2022/02/06 06:25:40;;;;;;;11.30;2.80;;;;;;;6.78;86.94;100370.72;5109713;28;20059;-68
2022/02/06 06:28:07;;;;;;;7.80;2.65;;;;;;;6.71;86.65;100376.56;5108213;28;20056;-68
2022/02/06 06:30:36;;;;;;;12.07;2.65;;;;;;;6.85;86.33;100374.47;5106774;28;20093;-67
2022/02/06 06:33:04;;;;;;;9.95;2.63;;;;;;;6.73;86.94;100358.81;5109376;28;20039;-67
2022/02/06 06:35:48;;;;;;;8.45;2.50;;;;;;;6.80;87.18;100353.78;5108521;28;20066;-67
2022/02/06 06:38:16;;;;;;;10.73;3.05;;;;;;;6.78;87.25;100353.09;5107306;28;20539;-67
2022/02/06 06:40:42;;;;;;;12.18;2.97;;;;;;;6.81;86.69;100363.38;5094386;28;20040;-67
2022/02/06 06:43:09;;;;;;;9.70;2.70;;;;;;;6.82;87.36;100351.88;5094949;28;20044;-67
2022/02/06 06:45:36;;;;;;;12.85;2.63;;;;;;;6.75;87.15;100345.47;5095653;28;20048;-67
2022/02/06 06:48:03;;;;;;;10.38;3.13;;;;;;;6.84;87.40;100341.16;5095802;28;20085;-67
2022/02/06 06:50:33;;;;;;;8.60;2.80;;;;;;;6.85;87.34;100356.00;5094645;28;20504;-67
2022/02/06 06:53:03;;;;;;;9.45;2.28;;;;;;;6.81;86.93;100341.47;5095753;28;20721;-67
2022/02/06 06:55:33;;;;;;;15.38;2.67;;;;;;;6.82;87.18;100338.69;5095498;28;20062;-68
2022/02/06 06:58:11;;;;;;;7.50;2.33;;;;;;;6.84;86.94;100310.38;5078163;28;20123;-68
2022/02/06 07:00:44;;;;;;;13.15;3.15;;;;;;;6.83;87.89;100319.25;5095339;28;20068;-67
2022/02/06 07:03:10;;;;;;;9.82;2.63;;;;;;;6.80;87.14;100321.31;5095496;28;20093;-67
2022/02/06 07:05:37;;;;;;;7.78;2.85;;;;;;;6.82;86.98;100314.09;5093974;28;20058;-67
2022/02/06 07:08:05;;;;;;;18.55;3.08;;;;;;;6.77;86.56;100306.63;5094136;28;20056;-67
2022/02/06 07:10:32;;;;;;;11.73;2.63;;;;;;;6.85;86.52;100317.28;5077526;28;20047;-68
2022/02/06 07:12:59;;;;;;;8.80;2.90;;;;;;;6.85;86.71;100316.47;5095089;28;20040;-67
2022/02/06 07:15:25;;;;;;;11.40;2.85;;;;;;;6.85;86.79;100319.09;5093915;28;20043;-67
2022/02/06 07:17:52;;;;;;;13.80;2.90;;;;;;;6.88;86.28;100309.09;5095236;28;20047;-67
2022/02/06 07:20:19;;;;;;;9.18;3.30;;;;;;;6.83;86.95;100305.22;5094042;28;20071;-68
2022/02/06 07:22:46;;;;;;;10.32;2.63;;;;;;;6.84;86.39;100288.41;5077204;28;20048;-68
2022/02/06 07:25:12;;;;;;;12.73;2.88;;;;;;;6.79;87.08;100302.03;5093858;28;20036;-67
2022/02/06 07:27:43;;;;;;;9.27;2.75;;;;;;;6.80;87.43;100311.59;5093538;28;20415;-67
2022/02/06 07:30:10;;;;;;;11.50;3.30;;;;;;;6.76;86.80;100293.59;5093789;28;20048;-68
2022/02/06 07:32:38;;;;;;;6.80;2.60;;;;;;;6.75;88.04;100289.25;5093709;28;20477;-68
2022/02/06 07:35:08;;;;;;;8.68;2.47;;;;;;;6.78;86.38;100291.63;5092928;28;20050;-68
2022/02/06 07:37:37;;;;;;;10.35;2.85;;;;;;;6.83;87.77;100290.22;5093568;28;20038;-68
2022/02/06 07:40:05;;;;;;;8.00;2.53;;;;;;;6.81;87.24;100278.19;5095770;28;20078;-67
2022/02/06 07:42:32;;;;;;;9.57;2.63;;;;;;;6.84;86.90;100278.72;5093625;28;20048;-67
2022/02/06 07:45:08;;;;;;;7.30;2.38;;;;;;;6.71;87.51;100286.94;5093359;28;20074;-67
2022/02/06 07:47:34;;;;;;;9.18;2.88;;;;;;;6.75;87.92;100303.31;5093522;28;20056;-67
2022/02/06 07:50:04;;;;;;;9.55;2.53;;;;;;;6.70;88.10;100258.06;5093002;28;20488;-67
2022/02/06 07:52:31;;;;;;;9.70;2.53;;;;;;;6.71;87.54;100257.94;5094024;28;20040;-67
2022/02/06 07:54:58;;;;;;;6.82;2.45;;;;;;;6.64;88.67;100255.97;5093174;28;20075;-68
2022/02/06 07:57:25;;;;;;;9.05;2.50;;;;;;;6.76;89.14;100246.94;5093003;28;20047;-66
2022/02/06 07:59:52;;;;;;;9.50;2.20;;;;;;;6.76;88.08;100254.84;5076282;28;20454;-66
2022/02/06 08:02:19;;;;;;;11.35;2.35;;;;;;;6.78;88.81;100223.09;5076460;28;20054;-66
2022/02/06 08:04:48;;;;;;;5.18;2.00;;;;;;;6.76;87.81;100225.03;5092407;28;20044;-66
2022/02/06 08:07:16;;;;;;;6.40;2.38;;;;;;;6.75;88.00;100218.09;5093236;28;20055;-66
2022/02/06 08:09:50;;;;;;;9.05;2.35;;;;;;;6.83;87.86;100207.69;5094053;28;20048;-67
2022/02/06 08:12:26;;;;;;;7.00;2.00;;;;;;;6.84;88.11;100190.88;5092814;28;20043;-66
2022/02/06 08:14:55;;;;;;;7.00;1.90;;;;;;;6.82;88.34;100185.75;5093852;28;20047;-66
2022/02/06 08:17:25;;;;;;;7.88;2.17;;;;;;;6.81;86.80;100188.53;5092771;28;20051;-66
2022/02/06 08:19:53;;;;;;;6.25;1.70;;;;;;;6.81;87.52;100181.44;5092423;28;20048;-66
2022/02/06 08:22:21;;;;;;;5.68;1.83;;;;;;;6.84;87.94;100183.81;5092557;28;20093;-66
2022/02/06 08:24:48;;;;;;;4.38;1.63;;;;;;;6.85;87.58;100164.38;5092592;28;20040;-66
2022/02/06 08:27:15;;;;;;;8.45;2.00;;;;;;;6.87;86.92;100161.59;5093664;28;20055;-66
2022/02/06 08:29:45;;;;;;;3.47;1.65;;;;;;;6.90;86.77;100151.59;5093903;28;20046;-66
2022/02/06 08:32:13;;;;;;;7.00;1.92;;;;;;;6.96;87.44;100146.72;5092089;28;20054;-67
2022/02/06 08:34:40;;;;;;;7.70;1.95;;;;;;;6.95;86.61;100145.88;5092442;28;20036;-67
2022/02/06 08:37:08;;;;;;;5.05;1.85;;;;;;;6.97;87.19;100153.63;5059406;28;20052;-66
2022/02/06 08:39:37;;;;;;;7.13;2.20;;;;;;;7.02;86.19;100143.47;5075811;28;20036;-67
2022/02/06 08:42:06;;;;;;;3.83;1.50;;;;;;;7.02;86.06;100138.22;5092441;28;20054;-67
2022/02/06 08:44:33;;;;;;;6.05;1.98;;;;;;;7.01;86.70;100128.66;5092122;28;20113;-68
2022/02/06 08:47:00;;;;;;;10.63;1.98;;;;;;;7.13;86.91;100135.41;5093340;28;20044;-66
2022/02/06 08:49:27;;;;;;;6.38;1.80;;;;;;;7.00;86.90;100103.25;5093293;28;20113;-66
2022/02/06 08:51:53;;;;;;;4.00;1.38;;;;;;;7.12;86.02;100115.25;5092098;28;20040;-66
2022/02/06 08:54:25;;;;;;;5.15;1.80;;;;;;;7.16;86.27;100115.81;5075418;28;20467;-69
2022/02/06 08:57:12;;;;;;;16.85;1.70;;;;;;;7.14;85.97;100110.66;5092187;28;20036;-68
2022/02/06 08:59:41;;;;;;;5.05;1.70;;;;;;;7.11;86.65;100093.34;5093251;28;20040;-68
2022/02/06 09:02:08;;;;;;;7.00;1.90;;;;;;;7.16;86.64;100079.69;5092802;28;20044;-67
2022/02/06 09:04:34;;;;;;;6.90;1.77;;;;;;;7.09;86.75;100091.81;5090484;28;20071;-68
2022/02/06 09:07:02;;;;;;;5.70;1.80;;;;;;;7.19;86.75;100095.25;5092154;28;20056;-68
2022/02/06 09:09:31;;;;;;;5.07;1.63;;;;;;;7.28;85.86;100085.59;5092992;28;20438;-68
2022/02/06 09:11:59;;;;;;;6.07;1.90;;;;;;;7.23;85.26;100074.66;5092980;28;20093;-68
2022/02/06 09:14:27;;;;;;;6.40;1.70;;;;;;;7.21;85.74;100082.72;5093045;28;20112;-68
2022/02/06 09:16:55;;;;;;;5.60;1.40;;;;;;;7.22;85.66;100073.84;5091835;28;20097;-68
2022/02/06 09:19:22;;;;;;;3.78;1.40;;;;;;;7.22;86.52;100073.84;5091959;28;20415;-68
2022/02/06 09:21:50;;;;;;;5.22;1.75;;;;;;;7.16;86.59;100061.22;5092891;28;20126;-68
2022/02/06 09:24:20;;;;;;;4.43;1.65;;;;;;;7.24;87.48;100057.84;5092956;28;20047;-68
2022/02/06 09:26:48;;;;;;;7.45;1.98;;;;;;;7.11;86.89;100061.69;5092722;28;20051;-68
2022/02/06 09:29:16;;;;;;;5.32;1.85;;;;;;;7.11;87.76;100051.13;5079462;28;20051;-68
2022/02/06 09:31:44;;;;;;;7.57;1.80;;;;;;;7.10;88.41;100052.09;5091058;28;20040;-68
2022/02/06 09:36:48;;;;;;;5.35;1.55;;;;;;;7.04;89.54;100043.94;5131452;27;20735;-68
2022/02/06 09:39:15;;;;;;;3.42;1.70;;;;;;;7.03;89.12;100027.31;5131123;27;20067;-65
2022/02/06 09:41:46;;;;;;;5.90;1.73;;;;;;;7.00;89.56;100029.41;5112221;28;20384;-68
2022/02/06 09:44:14;;;;;;;6.10;1.60;;;;;;;6.96;89.45;100009.59;5110676;28;20040;-68
2022/02/06 09:46:50;;;;;;;4.80;1.77;;;;;;;6.97;89.19;100000.69;5110603;28;20054;-65
2022/02/06 09:49:22;;;;;;;4.57;1.58;;;;;;;6.97;88.66;100005.97;5110555;28;20048;-68
2022/02/06 09:51:50;;;;;;;3.65;1.50;;;;;;;6.96;89.38;99996.41;5110592;28;20066;-68
2022/02/06 09:54:18;;;;;;;7.55;1.83;;;;;;;6.93;89.17;100005.44;5128115;28;20046;-68
2022/02/06 09:56:48;;;;;;;3.78;1.60;;;;;;;6.96;88.60;99991.13;5130536;27;20035;-68
2022/02/06 09:59:18;;;;;;;5.40;1.70;;;;;;;6.99;88.72;99982.94;5130933;27;20038;-68
2022/02/06 10:01:48;;;;;;;5.82;2.17;;;;;;;7.04;89.04;99991.19;5130396;28;20044;-68
2022/02/06 10:04:19;;;;;;;4.40;1.63;;;;;;;7.05;87.89;99990.22;5111030;28;20403;-68
2022/02/06 10:07:08;;;;;;;6.00;1.75;;;;;;;7.03;88.40;99971.09;5129391;28;20038;-68
2022/02/06 10:09:55;;;;;;;4.95;1.50;;;;;;;7.03;88.80;99973.72;5129594;28;20050;-68
2022/02/06 10:12:23;;;;;;;4.15;2.05;;;;;;;7.02;87.66;99972.06;5122625;28;20043;-66
2022/02/06 10:14:51;;;;;;;4.60;1.65;;;;;;;6.98;88.03;99947.81;5112529;28;20096;-66
2022/02/06 10:17:18;;;;;;;2.83;1.10;;;;;;;6.97;87.88;99956.72;5129303;28;20112;-66
2022/02/06 10:19:51;;;;;;;4.82;1.50;;;;;;;6.94;87.62;99946.44;5129391;28;20039;-67
2022/02/06 10:22:26;;;;;;;5.90;1.77;;;;;;;6.99;87.54;99943.38;5130364;27;20040;-68
2022/02/06 10:25:10;;;;;;;4.13;1.58;;;;;;;7.01;87.91;99946.69;5130585;28;20118;-67
2022/02/06 10:28:05;;;;;;;6.85;1.50;;;;;;;6.99;87.60;99919.63;5128434;27;20043;-67
2022/02/06 10:33:12;;;;;;;3.08;1.33;;;;;;;6.95;88.65;99915.63;5110579;27;20436;-68
2022/02/06 10:35:42;;;;;;;5.60;1.50;;;;;;;6.99;88.95;99902.00;5092703;28;20058;-68
2022/02/06 10:38:19;;;;;;;4.32;1.42;;;;;;;6.94;89.11;99869.97;5092514;28;20048;-68
2022/02/06 10:41:11;;;;;;;2.80;1.17;;;;;;;6.94;88.08;99869.97;5092760;28;20130;-68
2022/02/06 10:43:52;;;;;;;4.55;1.42;;;;;;;6.84;88.81;99856.03;5110185;28;20126;-67
2022/02/06 10:46:20;;;;;;;4.65;1.70;;;;;;;6.84;88.41;99848.13;5092535;28;20048;-67
2022/02/06 10:48:49;;;;;;;5.85;1.30;;;;;;;6.84;88.17;99841.06;5092372;28;20040;-68
2022/02/06 10:51:38;;;;;;;4.07;1.38;;;;;;;6.77;89.11;99833.91;5090442;28;20032;-67
2022/02/06 10:54:07;;;;;;;7.60;1.52;;;;;;;6.77;89.41;99794.34;5109709;28;20067;-67
2022/02/06 10:56:40;;;;;;;3.10;1.33;;;;;;;6.83;89.75;99812.22;5109947;28;20043;-67
2022/02/06 10:59:08;;;;;;;4.32;1.50;;;;;;;6.72;90.11;99786.91;5091190;28;20040;-68
2022/02/06 11:01:39;;;;;;;4.25;1.48;;;;;;;6.86;89.17;99791.66;5089935;28;20477;-67
2022/02/06 11:06:46;;;;;;;4.22;1.42;;;;;;;6.80;88.69;99778.25;5070395;28;20619;-68
2022/02/06 11:09:30;;;;;;;2.88;1.30;;;;;;;6.85;88.53;99768.88;5070253;28;20037;-65
2022/02/06 11:11:59;;;;;;;3.88;1.38;;;;;;;6.84;89.41;99754.06;5038216;28;20053;-67
2022/02/06 11:14:29;;;;;;;4.95;1.50;;;;;;;6.86;89.03;99746.00;5014252;28;20076;-67
2022/02/06 11:16:57;;;;;;;2.15;1.10;;;;;;;6.80;88.03;99738.69;5050055;28;20156;-67
2022/02/06 11:19:24;;;;;;;3.22;1.20;;;;;;;6.80;89.11;99742.16;5049874;28;20095;-67
2022/02/06 11:22:09;;;;;;;4.32;1.50;;;;;;;6.80;89.03;99725.53;5049977;28;20045;-67
2022/02/06 11:24:38;;;;;;;5.53;1.40;;;;;;;6.78;89.84;99720.41;5050058;28;20068;-67
2022/02/06 11:27:06;;;;;;;3.53;1.23;;;;;;;6.74;89.27;99713.78;4999632;28;20152;-67
2022/02/06 11:29:33;;;;;;;7.10;1.40;;;;;;;6.70;90.31;99700.09;5016086;28;20057;-67
2022/02/06 11:32:01;;;;;;;4.85;1.67;;;;;;;6.73;90.26;99691.03;5032504;28;20387;-67
2022/02/06 11:34:28;;;;;;;3.75;1.50;;;;;;;6.73;90.21;99675.22;5069852;28;20063;-68
2022/02/06 11:46:08;;;;;;;3.85;1.42;;;;;;;6.76;89.26;99626.66;5069215;28;20033;-66
2022/02/06 11:48:38;;;;;;;2.95;1.25;;;;;;;6.74;90.18;99626.81;5069381;28;20519;-69
2022/02/06 11:51:05;;;;;;;5.78;1.67;;;;;;;6.73;90.67;99612.81;5035200;28;20048;-66
2022/02/06 11:53:42;;;;;;;5.05;1.50;;;;;;;6.75;90.83;99599.47;5051218;28;20048;-66
2022/02/06 11:56:33;;;;;;;8.30;1.30;;;;;;;6.69;91.58;99592.19;5045763;28;20043;-66
2022/02/06 11:59:09;;;;;;;2.67;1.20;;;;;;;6.79;90.42;99571.81;5049444;28;20508;-66
2022/02/06 12:01:36;;;;;;;2.03;1.30;;;;;;;6.73;90.59;99554.81;5049211;28;20509;-66
2022/02/06 12:04:06;;;;;;;3.75;1.20;;;;;;;6.76;90.62;99558.94;5046434;28;20037;-66
2022/02/06 12:06:49;;;;;;;3.03;1.15;;;;;;;6.82;89.91;99524.06;5031511;28;20049;-65
2022/02/06 12:09:19;;;;;;;4.13;1.27;;;;;;;6.83;89.85;99527.50;5031621;28;20141;-66
2022/02/06 12:14:51;;;;;;;6.93;1.50;;;;;;;6.84;90.92;99511.53;5128489;27;20381;-67
2022/02/06 12:17:25;;;;;;;4.28;1.65;;;;;;;6.94;90.23;99516.66;5086140;28;20048;-66
2022/02/06 12:20:13;;;;;;;5.85;1.40;;;;;;;6.99;91.01;99503.00;5076766;28;20040;-66
2022/02/06 12:22:43;;;;;;;5.50;1.38;;;;;;;7.06;90.69;99512.75;5109991;28;20089;-67
2022/02/06 12:25:32;;;;;;;2.63;1.30;;;;;;;7.08;90.62;99502.88;5109197;28;20097;-67
2022/02/06 12:30:57;;;;;;;5.88;1.58;;;;;;;7.11;90.88;99484.09;5090349;27;20388;-68
2022/02/06 12:33:30;;;;;;;2.90;1.20;;;;;;;7.20;90.08;99481.44;5088392;28;20048;-68
2022/02/06 12:38:44;;;;;;;3.22;1.40;;;;;;;7.26;91.42;99468.44;5069990;28;20044;-67
2022/02/06 12:41:24;;;;;;;7.15;1.50;;;;;;;7.35;91.24;99458.72;5052536;28;20041;-68
2022/02/06 12:43:54;;;;;;;2.53;1.08;;;;;;;7.36;90.90;99451.63;5070129;28;20131;-68
2022/02/06 12:46:23;;;;;;;10.35;1.65;;;;;;;7.36;91.84;99470.91;5043190;28;20048;-68
2022/02/06 12:48:51;;;;;;;5.03;1.50;;;;;;;7.46;91.98;99454.94;5056414;28;20036;-66
2022/02/06 12:51:27;;;;;;;3.15;1.40;;;;;;;7.48;92.13;99460.88;5072896;28;20412;-66
2022/02/06 12:54:05;;;;;;;6.05;1.40;;;;;;;7.51;91.97;99463.16;5090216;28;20040;-69
2022/02/06 12:56:33;;;;;;;7.80;1.52;;;;;;;7.49;92.43;99471.25;5035739;28;20473;-69
2022/02/06 12:59:02;;;;;;;3.45;1.45;;;;;;;7.51;92.77;99457.88;5035589;28;20052;-66
2022/02/06 13:01:38;;;;;;;3.35;1.23;;;;;;;7.53;92.91;99466.47;5079542;28;20041;-66
2022/02/06 13:04:06;;;;;;;3.85;1.42;;;;;;;7.67;93.06;99468.44;5054168;28;20049;-66
2022/02/06 13:06:35;;;;;;;4.68;1.80;;;;;;;7.75;92.30;99464.13;5048538;28;20037;-68
2022/02/06 13:09:06;;;;;;;4.10;1.58;;;;;;;7.73;92.75;99477.53;5035501;28;20087;-69
2022/02/06 13:11:44;;;;;;;3.80;1.58;;;;;;;7.73;93.10;99482.81;5035462;28;20068;-66
2022/02/06 13:14:27;;;;;;;5.57;1.52;;;;;;;7.76;93.06;99514.13;5072478;28;20043;-66
2022/02/06 13:17:12;;;;;;;2.95;1.05;;;;;;;7.59;91.88;99555.53;5043017;28;20045;-65
2022/02/06 13:19:58;;;;;;;3.22;1.23;;;;;;;7.35;90.56;99568.69;5035723;28;20048;-69
2022/02/06 13:25:45;;;;;;;7.35;1.10;;;;;;;6.74;88.32;99624.16;5069897;28;20072;-67
2022/02/06 13:33:59;;;;;;;3.03;1.08;;;;;;;6.38;88.19;99658.53;5114683;27;20391;-68
2022/02/06 13:39:14;;;;;;;5.38;1.67;;;;;;;6.46;87.22;99648.06;5094639;28;20089;-67
2022/02/06 13:41:41;;;;;;;5.57;1.45;;;;;;;6.43;88.30;99651.00;5111016;28;20047;-67
2022/02/06 13:44:19;;;;;;;7.15;1.30;;;;;;;6.33;89.72;99656.38;5109553;28;20397;-67
2022/02/06 13:46:46;;;;;;;2.08;1.10;;;;;;;6.40;87.87;99655.75;5109286;28;20050;-67
2022/02/06 13:49:15;;;;;;;3.58;1.17;;;;;;;6.35;85.04;99656.22;5126497;28;20138;-67
2022/02/06 13:51:46;;;;;;;4.30;1.13;;;;;;;6.29;85.90;99656.81;5092443;28;20489;-66
2022/02/06 13:54:15;;;;;;;2.75;1.17;;;;;;;6.28;83.33;99640.19;5109163;28;20043;-66
2022/02/06 13:56:45;;;;;;;7.00;1.50;;;;;;;6.27;83.25;99645.59;5110611;28;20604;-67
2022/02/06 13:59:19;;;;;;;3.90;1.00;;;;;;;6.33;82.67;99644.97;5110564;28;20147;-67
2022/02/06 14:01:53;;;;;;;6.78;1.55;;;;;;;6.36;82.34;99634.13;5110234;28;20043;-67
2022/02/06 14:04:35;;;;;;;10.52;2.10;;;;;;;6.39;81.21;99647.00;5108604;28;20036;-67
2022/02/06 14:07:12;;;;;;;5.20;1.75;;;;;;;6.32;82.35;99652.06;5110542;28;20396;-67
2022/02/06 14:12:20;;;;;;;6.38;1.67;;;;;;;6.39;81.87;99664.63;5131610;27;20283;-66
2022/02/06 14:17:29;;;;;;;4.43;1.45;;;;;;;6.44;82.54;99678.16;5090274;27;20458;-68
2022/02/06 14:20:07;;;;;;;3.40;1.17;;;;;;;6.40;81.86;99684.72;5073163;28;20048;-68
2022/02/06 14:22:37;;;;;;;4.93;1.40;;;;;;;6.25;83.89;99676.53;5055502;28;20048;-67
2022/02/06 14:25:09;;;;;;;5.47;1.42;;;;;;;6.22;83.00;99666.28;5052543;28;20098;-68
2022/02/06 14:27:41;;;;;;;4.93;1.58;;;;;;;6.39;83.40;99676.00;5036555;28;20132;-68
2022/02/06 14:35:51;;;;;;;5.65;1.58;;;;;;;6.27;84.34;99683.28;5110860;27;20368;-68